DLH1BV EDDS-EDDF
Flight info
| Callsign | DLH1BV |
|---|---|
| Flight time | 0h 33m |
| Altitude | 20000 |
| Route | ETASA4B ETASA T163 SPESA SPESA5B |
| Aircraft | A321/M-SDE3FGHIRWY/LB1 |
Departure
| Time | 2026-05-07 15:34 |
|---|---|
| Airport | Stuttgart Airport (EDDS) |
Arrival
| Time | 2026-05-07 16:07 |
|---|---|
| Airport | Frankfurt Main Airport (EDDF) |
| Time | Latitude | Longitude | Altitude | Speed | Heading |
|---|---|---|---|---|---|
| 2026-05-07 14:58 | 48.68923 | 9.19582 | 1291 ft | 0 kts | 344° |
| 2026-05-07 15:19 | 48.68919 | 9.19584 | 1285 ft | 2 kts | 344° |
| 2026-05-07 15:19 | 48.68902 | 9.19592 | 1286 ft | 3 kts | 344° |
| 2026-05-07 15:19 | 48.68882 | 9.19600 | 1289 ft | 3 kts | 344° |
| 2026-05-07 15:19 | 48.68864 | 9.19607 | 1290 ft | 3 kts | 6° |
| 2026-05-07 15:20 | 48.68849 | 9.19599 | 1290 ft | 3 kts | 63° |
| 2026-05-07 15:20 | 48.68845 | 9.19584 | 1291 ft | 2 kts | 74° |
| 2026-05-07 15:20 | 48.68841 | 9.19562 | 1291 ft | 1 kts | 74° |
| 2026-05-07 15:20 | 48.68841 | 9.19560 | 1291 ft | 0 kts | 74° |
| 2026-05-07 15:23 | 48.68846 | 9.19588 | 1290 ft | 6 kts | 76° |
| 2026-05-07 15:23 | 48.68860 | 9.19674 | 1287 ft | 10 kts | 75° |
| 2026-05-07 15:23 | 48.68884 | 9.19807 | 1285 ft | 14 kts | 82° |
| 2026-05-07 15:23 | 48.68829 | 9.19919 | 1285 ft | 13 kts | 114° |
| 2026-05-07 15:24 | 48.68843 | 9.20065 | 1285 ft | 15 kts | 74° |
| 2026-05-07 15:24 | 48.68874 | 9.20232 | 1285 ft | 19 kts | 74° |
| 2026-05-07 15:24 | 48.68914 | 9.20444 | 1285 ft | 23 kts | 72° |
| 2026-05-07 15:24 | 48.68961 | 9.20687 | 1285 ft | 25 kts | 74° |
| 2026-05-07 15:25 | 48.69009 | 9.20939 | 1287 ft | 25 kts | 74° |
| 2026-05-07 15:25 | 48.69057 | 9.21194 | 1285 ft | 25 kts | 74° |
| 2026-05-07 15:25 | 48.69106 | 9.21453 | 1287 ft | 26 kts | 73° |
| 2026-05-07 15:25 | 48.69158 | 9.21717 | 1285 ft | 26 kts | 73° |
| 2026-05-07 15:26 | 48.69209 | 9.21985 | 1287 ft | 27 kts | 73° |
| 2026-05-07 15:26 | 48.69259 | 9.22256 | 1285 ft | 27 kts | 75° |
| 2026-05-07 15:26 | 48.69311 | 9.22529 | 1290 ft | 27 kts | 74° |
| 2026-05-07 15:26 | 48.69364 | 9.22803 | 1285 ft | 27 kts | 73° |
| 2026-05-07 15:27 | 48.69416 | 9.23081 | 1286 ft | 27 kts | 74° |
| 2026-05-07 15:27 | 48.69469 | 9.23359 | 1289 ft | 28 kts | 73° |
| 2026-05-07 15:27 | 48.69523 | 9.23639 | 1285 ft | 28 kts | 75° |
| 2026-05-07 15:27 | 48.69567 | 9.23886 | 1287 ft | 17 kts | 73° |
| 2026-05-07 15:28 | 48.69602 | 9.24061 | 1285 ft | 17 kts | 74° |
| 2026-05-07 15:28 | 48.69592 | 9.24205 | 1287 ft | 12 kts | 115° |
| 2026-05-07 15:28 | 48.69563 | 9.24269 | 1285 ft | 7 kts | 135° |
| 2026-05-07 15:28 | 48.69518 | 9.24304 | 1286 ft | 8 kts | 163° |
| 2026-05-07 15:29 | 48.69496 | 9.24313 | 1287 ft | 0 kts | 164° |
| 2026-05-07 15:32 | 48.69495 | 9.24313 | 1287 ft | 1 kts | 164° |
| 2026-05-07 15:32 | 48.69473 | 9.24323 | 1290 ft | 7 kts | 164° |
| 2026-05-07 15:32 | 48.69401 | 9.24335 | 1285 ft | 11 kts | 208° |
| 2026-05-07 15:32 | 48.69375 | 9.24237 | 1286 ft | 3 kts | 257° |
| 2026-05-07 15:33 | 48.69374 | 9.24232 | 1288 ft | 6 kts | 257° |
| 2026-05-07 15:33 | 48.69290 | 9.23779 | 1289 ft | 81 kts | 254° |
| 2026-05-07 15:33 | 48.69072 | 9.22634 | 1288 ft | 143 kts | 254° |
| 2026-05-07 15:33 | 48.68749 | 9.21010 | 1616 ft | 165 kts | 252° |
| 2026-05-07 15:34 | 48.68377 | 9.19383 | 2410 ft | 164 kts | 251° |
| 2026-05-07 15:34 | 48.67963 | 9.17718 | 2833 ft | 177 kts | 250° |
| 2026-05-07 15:34 | 48.67579 | 9.15882 | 3250 ft | 188 kts | 254° |
| 2026-05-07 15:34 | 48.67258 | 9.13937 | 3779 ft | 193 kts | 255° |
| 2026-05-07 15:35 | 48.67147 | 9.11947 | 4394 ft | 189 kts | 276° |
| 2026-05-07 15:35 | 48.67511 | 9.10053 | 4971 ft | 189 kts | 296° |
| 2026-05-07 15:35 | 48.68236 | 9.08296 | 5284 ft | 207 kts | 303° |
| 2026-05-07 15:35 | 48.69292 | 9.06656 | 5425 ft | 233 kts | 328° |
| 2026-05-07 15:36 | 48.70874 | 9.05694 | 5693 ft | 257 kts | 340° |
| 2026-05-07 15:36 | 48.72606 | 9.04809 | 6201 ft | 267 kts | 340° |
| 2026-05-07 15:36 | 48.74387 | 9.03909 | 6875 ft | 272 kts | 338° |
| 2026-05-07 15:36 | 48.76190 | 9.02994 | 7565 ft | 275 kts | 339° |
| 2026-05-07 15:37 | 48.78033 | 9.02143 | 8240 ft | 280 kts | 346° |
| 2026-05-07 15:37 | 48.79999 | 9.02001 | 8930 ft | 288 kts | 4° |
| 2026-05-07 15:37 | 48.81955 | 9.02783 | 9624 ft | 296 kts | 22° |
| 2026-05-07 15:37 | 48.83740 | 9.04310 | 10237 ft | 302 kts | 30° |
| 2026-05-07 15:38 | 48.85605 | 9.06017 | 10388 ft | 324 kts | 29° |
| 2026-05-07 15:38 | 48.87686 | 9.07557 | 10521 ft | 342 kts | 19° |
| 2026-05-07 15:38 | 48.90032 | 9.08583 | 10648 ft | 360 kts | 9° |
| 2026-05-07 15:38 | 48.92559 | 9.09025 | 11012 ft | 370 kts | 3° |
| 2026-05-07 15:39 | 48.95132 | 9.09370 | 11635 ft | 373 kts | 3° |
| 2026-05-07 15:39 | 48.97717 | 9.09741 | 12364 ft | 373 kts | 4° |
| 2026-05-07 15:39 | 49.00313 | 9.10120 | 13064 ft | 375 kts | 5° |
| 2026-05-07 15:39 | 49.02919 | 9.10501 | 13732 ft | 378 kts | 4° |
| 2026-05-07 15:40 | 49.05547 | 9.10886 | 14290 ft | 380 kts | 4° |
| 2026-05-07 15:40 | 49.08190 | 9.11273 | 14749 ft | 384 kts | 5° |
| 2026-05-07 15:40 | 49.10864 | 9.11660 | 15214 ft | 387 kts | 4° |
| 2026-05-07 15:40 | 49.13560 | 9.12049 | 15679 ft | 391 kts | 4° |
| 2026-05-07 15:41 | 49.16278 | 9.12442 | 16142 ft | 393 kts | 4° |
| 2026-05-07 15:41 | 49.19009 | 9.12837 | 16612 ft | 396 kts | 4° |
| 2026-05-07 15:41 | 49.21737 | 9.13229 | 17046 ft | 399 kts | 3° |
| 2026-05-07 15:41 | 49.24511 | 9.13621 | 17488 ft | 402 kts | 3° |
| 2026-05-07 15:42 | 49.27308 | 9.14013 | 17922 ft | 405 kts | 3° |
| 2026-05-07 15:42 | 49.30124 | 9.14406 | 18342 ft | 408 kts | 3° |
| 2026-05-07 15:42 | 49.32962 | 9.14805 | 18723 ft | 411 kts | 3° |
| 2026-05-07 15:42 | 49.35814 | 9.15211 | 19113 ft | 413 kts | 3° |
| 2026-05-07 15:43 | 49.38688 | 9.15619 | 19457 ft | 415 kts | 3° |
| 2026-05-07 15:43 | 49.41594 | 9.16036 | 19291 ft | 422 kts | 3° |
| 2026-05-07 15:43 | 49.44519 | 9.16459 | 19070 ft | 422 kts | 3° |
| 2026-05-07 15:43 | 49.47437 | 9.16881 | 19038 ft | 421 kts | 3° |
| 2026-05-07 15:44 | 49.50361 | 9.17303 | 19049 ft | 422 kts | 3° |
| 2026-05-07 15:44 | 49.53284 | 9.17726 | 19042 ft | 422 kts | 3° |
| 2026-05-07 15:44 | 49.56210 | 9.18152 | 18709 ft | 421 kts | 3° |
| 2026-05-07 15:44 | 49.59117 | 9.18573 | 18354 ft | 417 kts | 3° |
| 2026-05-07 15:45 | 49.61923 | 9.19087 | 17964 ft | 406 kts | 9° |
| 2026-05-07 15:45 | 49.64608 | 9.20296 | 17558 ft | 398 kts | 20° |
| 2026-05-07 15:45 | 49.67047 | 9.22218 | 17160 ft | 391 kts | 31° |
| 2026-05-07 15:45 | 49.69266 | 9.24559 | 16772 ft | 381 kts | 28° |
| 2026-05-07 15:46 | 49.74171 | 9.26015 | 15998 ft | 353 kts | 348° |
| 2026-05-07 15:46 | 49.76537 | 9.25183 | 15626 ft | 346 kts | 344° |
| 2026-05-07 15:46 | 49.78860 | 9.24265 | 15246 ft | 342 kts | 344° |
| 2026-05-07 15:47 | 49.81155 | 9.23343 | 14871 ft | 340 kts | 344° |
| 2026-05-07 15:47 | 49.83435 | 9.22416 | 14499 ft | 338 kts | 344° |
| 2026-05-07 15:47 | 49.85713 | 9.21489 | 13905 ft | 339 kts | 344° |
| 2026-05-07 15:47 | 49.88001 | 9.20553 | 13184 ft | 341 kts | 344° |
| 2026-05-07 15:48 | 49.90302 | 9.19606 | 12469 ft | 343 kts | 344° |
| 2026-05-07 15:48 | 49.92608 | 9.18654 | 11775 ft | 344 kts | 344° |
| 2026-05-07 15:48 | 49.94920 | 9.17695 | 11098 ft | 344 kts | 344° |
| 2026-05-07 15:48 | 49.97233 | 9.16733 | 10429 ft | 344 kts | 344° |
| 2026-05-07 15:49 | 49.99546 | 9.15766 | 9755 ft | 344 kts | 344° |
| 2026-05-07 15:49 | 50.01853 | 9.14800 | 9031 ft | 339 kts | 344° |
| 2026-05-07 15:49 | 50.04058 | 9.13818 | 8326 ft | 328 kts | 338° |
| 2026-05-07 15:49 | 50.06070 | 9.12282 | 7633 ft | 318 kts | 322° |
| 2026-05-07 15:50 | 50.07562 | 9.09841 | 6962 ft | 309 kts | 306° |
| 2026-05-07 15:50 | 50.08791 | 9.07125 | 6281 ft | 303 kts | 304° |
| 2026-05-07 15:50 | 50.09971 | 9.04436 | 5580 ft | 299 kts | 304° |
| 2026-05-07 15:50 | 50.11121 | 9.01785 | 5063 ft | 289 kts | 304° |
| 2026-05-07 15:51 | 50.12195 | 8.99237 | 4799 ft | 272 kts | 298° |
| 2026-05-07 15:51 | 50.12683 | 8.96505 | 4543 ft | 258 kts | 271° |
| 2026-05-07 15:51 | 50.12327 | 8.93842 | 4282 ft | 247 kts | 251° |
| 2026-05-07 15:51 | 50.11745 | 8.91394 | 4028 ft | 235 kts | 251° |
| 2026-05-07 15:52 | 50.11192 | 8.89057 | 3923 ft | 228 kts | 252° |
| 2026-05-07 15:52 | 50.10643 | 8.86718 | 3951 ft | 230 kts | 252° |
| 2026-05-07 15:52 | 50.10093 | 8.84380 | 3816 ft | 230 kts | 252° |
| 2026-05-07 15:52 | 50.09543 | 8.82042 | 3547 ft | 229 kts | 252° |
| 2026-05-07 15:53 | 50.08994 | 8.79714 | 3252 ft | 229 kts | 251° |
| 2026-05-07 15:53 | 50.08463 | 8.77462 | 2951 ft | 227 kts | 251° |
| 2026-05-07 15:53 | 50.07911 | 8.75126 | 2633 ft | 220 kts | 251° |
| 2026-05-07 15:53 | 50.07403 | 8.72985 | 2360 ft | 204 kts | 251° |
| 2026-05-07 15:54 | 50.06937 | 8.71016 | 2083 ft | 185 kts | 251° |
| 2026-05-07 15:54 | 50.06515 | 8.69234 | 1842 ft | 166 kts | 251° |
| 2026-05-07 15:54 | 50.06130 | 8.67611 | 1625 ft | 156 kts | 251° |
| 2026-05-07 15:54 | 50.05750 | 8.65973 | 1706 ft | 167 kts | 252° |
| 2026-05-07 15:55 | 50.05320 | 8.64258 | 2223 ft | 169 kts | 247° |
| 2026-05-07 15:55 | 50.04771 | 8.62583 | 2481 ft | 185 kts | 244° |
| 2026-05-07 15:55 | 50.04132 | 8.60699 | 2721 ft | 209 kts | 244° |
| 2026-05-07 15:55 | 50.03418 | 8.58592 | 3066 ft | 229 kts | 244° |
| 2026-05-07 15:56 | 50.02664 | 8.56357 | 3445 ft | 235 kts | 244° |
| 2026-05-07 15:56 | 50.01698 | 8.54334 | 3694 ft | 237 kts | 218° |
| 2026-05-07 15:56 | 50.00739 | 8.53525 | 3869 ft | 239 kts | 198° |
| 2026-05-07 15:56 | 49.99082 | 8.53396 | 3980 ft | 242 kts | 166° |
| 2026-05-07 15:57 | 49.97612 | 8.54612 | 4010 ft | 242 kts | 134° |
| 2026-05-07 15:57 | 49.96762 | 8.56828 | 4010 ft | 241 kts | 102° |
| 2026-05-07 15:57 | 49.96745 | 8.59396 | 4010 ft | 239 kts | 78° |
| 2026-05-07 15:57 | 49.97099 | 8.61914 | 4007 ft | 238 kts | 74° |
| 2026-05-07 15:58 | 49.97499 | 8.64404 | 4009 ft | 237 kts | 74° |
| 2026-05-07 15:58 | 49.97906 | 8.66882 | 4010 ft | 236 kts | 74° |
| 2026-05-07 15:58 | 49.98317 | 8.69355 | 4009 ft | 237 kts | 74° |
| 2026-05-07 15:58 | 49.98729 | 8.71829 | 4008 ft | 237 kts | 74° |
| 2026-05-07 15:59 | 49.99139 | 8.74305 | 4008 ft | 237 kts | 74° |
| 2026-05-07 15:59 | 49.99548 | 8.76778 | 4008 ft | 236 kts | 73° |
| 2026-05-07 15:59 | 49.99958 | 8.79252 | 4009 ft | 237 kts | 73° |
| 2026-05-07 15:59 | 50.00367 | 8.81728 | 4009 ft | 236 kts | 74° |
| 2026-05-07 16:00 | 50.00775 | 8.84198 | 4006 ft | 236 kts | 74° |
| 2026-05-07 16:00 | 50.01184 | 8.86669 | 4008 ft | 236 kts | 73° |
| 2026-05-07 16:00 | 50.01593 | 8.89139 | 4009 ft | 236 kts | 74° |
| 2026-05-07 16:00 | 50.02003 | 8.91615 | 4010 ft | 236 kts | 74° |
| 2026-05-07 16:01 | 50.02470 | 8.94056 | 4009 ft | 235 kts | 61° |
| 2026-05-07 16:01 | 50.03521 | 8.95923 | 4008 ft | 230 kts | 28° |
| 2026-05-07 16:01 | 50.05000 | 8.96587 | 4008 ft | 225 kts | 356° |
| 2026-05-07 16:01 | 50.06548 | 8.96212 | 4009 ft | 226 kts | 345° |
| 2026-05-07 16:02 | 50.08070 | 8.95622 | 4007 ft | 225 kts | 344° |
| 2026-05-07 16:02 | 50.09580 | 8.94985 | 4007 ft | 224 kts | 341° |
| 2026-05-07 16:02 | 50.10883 | 8.93720 | 4007 ft | 223 kts | 309° |
| 2026-05-07 16:02 | 50.11502 | 8.91537 | 4008 ft | 226 kts | 275° |
| 2026-05-07 16:03 | 50.11238 | 8.89130 | 4008 ft | 229 kts | 252° |
| 2026-05-07 16:03 | 50.10678 | 8.86803 | 4006 ft | 230 kts | 251° |
| 2026-05-07 16:03 | 50.10115 | 8.84467 | 3836 ft | 228 kts | 251° |
| 2026-05-07 16:03 | 50.09574 | 8.82182 | 3585 ft | 222 kts | 251° |
| 2026-05-07 16:04 | 50.09048 | 8.79948 | 3276 ft | 218 kts | 251° |
| 2026-05-07 16:04 | 50.08531 | 8.77755 | 2992 ft | 213 kts | 252° |
| 2026-05-07 16:04 | 50.08028 | 8.75626 | 2720 ft | 205 kts | 252° |
| 2026-05-07 16:04 | 50.07549 | 8.73601 | 2422 ft | 191 kts | 252° |
| 2026-05-07 16:05 | 50.07103 | 8.71715 | 2175 ft | 182 kts | 251° |
| 2026-05-07 16:05 | 50.06675 | 8.69910 | 1947 ft | 170 kts | 251° |
| 2026-05-07 16:05 | 50.06284 | 8.68257 | 1719 ft | 158 kts | 251° |
| 2026-05-07 16:05 | 50.05915 | 8.66702 | 1493 ft | 152 kts | 252° |
| 2026-05-07 16:06 | 50.05551 | 8.65167 | 1297 ft | 148 kts | 253° |
| 2026-05-07 16:06 | 50.05208 | 8.63702 | 1169 ft | 145 kts | 252° |
| 2026-05-07 16:06 | 50.04860 | 8.62235 | 958 ft | 145 kts | 251° |
| 2026-05-07 16:06 | 50.04517 | 8.60785 | 717 ft | 140 kts | 251° |
| 2026-05-07 16:07 | 50.04182 | 8.59397 | 488 ft | 137 kts | 249° |
| 2026-05-07 16:07 | 50.03854 | 8.58021 | 373 ft | 134 kts | 250° |
| 2026-05-07 16:07 | 50.03567 | 8.56817 | 360 ft | 96 kts | 249° |
| 2026-05-07 16:07 | 50.03399 | 8.56108 | 359 ft | 45 kts | 249° |
| 2026-05-07 16:08 | 50.03322 | 8.55756 | 355 ft | 33 kts | 256° |
| 2026-05-07 16:08 | 50.03324 | 8.55423 | 359 ft | 17 kts | 281° |
| 2026-05-07 16:08 | 50.03340 | 8.55291 | 359 ft | 9 kts | 281° |
| 2026-05-07 16:08 | 50.03343 | 8.55269 | 359 ft | 0 kts | 279° |
| 2026-05-07 16:09 | 50.03343 | 8.55267 | 362 ft | 1 kts | 279° |
| 2026-05-07 16:09 | 50.03344 | 8.55256 | 361 ft | 1 kts | 277° |
| 2026-05-07 16:10 | 50.03345 | 8.55241 | 361 ft | 0 kts | 277° |
| 2026-05-07 16:11 | 50.03349 | 8.55197 | 364 ft | 14 kts | 277° |
| 2026-05-07 16:11 | 50.03362 | 8.54956 | 362 ft | 27 kts | 264° |
| 2026-05-07 16:11 | 50.03303 | 8.54679 | 364 ft | 23 kts | 248° |
| 2026-05-07 16:11 | 50.03290 | 8.54510 | 366 ft | 14 kts | 309° |
| 2026-05-07 16:12 | 50.03381 | 8.54441 | 361 ft | 16 kts | 339° |
| 2026-05-07 16:12 | 50.03507 | 8.54369 | 357 ft | 21 kts | 340° |
| 2026-05-07 16:12 | 50.03629 | 8.54314 | 360 ft | 16 kts | 9° |
| 2026-05-07 16:12 | 50.03691 | 8.54458 | 361 ft | 17 kts | 69° |
| 2026-05-07 16:13 | 50.03735 | 8.54640 | 365 ft | 19 kts | 69° |
| 2026-05-07 16:13 | 50.03781 | 8.54834 | 364 ft | 20 kts | 70° |
| 2026-05-07 16:13 | 50.03830 | 8.55040 | 361 ft | 21 kts | 69° |
| 2026-05-07 16:13 | 50.03882 | 8.55253 | 365 ft | 21 kts | 69° |
| 2026-05-07 16:14 | 50.03928 | 8.55449 | 364 ft | 15 kts | 70° |
| 2026-05-07 16:14 | 50.03965 | 8.55605 | 363 ft | 16 kts | 69° |
| 2026-05-07 16:14 | 50.04000 | 8.55748 | 364 ft | 9 kts | 70° |
| 2026-05-07 16:14 | 50.04022 | 8.55842 | 365 ft | 10 kts | 69° |
| 2026-05-07 16:15 | 50.04028 | 8.55867 | 368 ft | 0 kts | 69° |
| 2026-05-07 16:15 | 50.04039 | 8.55913 | 365 ft | 13 kts | 69° |
| 2026-05-07 16:15 | 50.04081 | 8.56092 | 366 ft | 19 kts | 70° |
| 2026-05-07 16:16 | 50.04126 | 8.56260 | 365 ft | 13 kts | 50° |
| 2026-05-07 16:16 | 50.04206 | 8.56260 | 363 ft | 9 kts | 339° |
| 2026-05-07 16:16 | 50.04223 | 8.56250 | 367 ft | 2 kts | 339° |
| 2026-05-07 16:16 | 50.04224 | 8.56249 | 367 ft | 0 kts | 339° |
| 2026-05-07 16:18 | 50.04267 | 8.56220 | 362 ft | 12 kts | 326° |
| 2026-05-07 16:18 | 50.04305 | 8.56091 | 365 ft | 15 kts | 311° |
| 2026-05-07 16:18 | 50.04404 | 8.56034 | 361 ft | 11 kts | 6° |
| 2026-05-07 16:18 | 50.04451 | 8.56113 | 364 ft | 10 kts | 64° |
| 2026-05-07 16:19 | 50.04477 | 8.56212 | 364 ft | 10 kts | 71° |
| 2026-05-07 16:19 | 50.04486 | 8.56267 | 364 ft | 3 kts | 91° |
| 2026-05-07 16:19 | 50.04462 | 8.56274 | 366 ft | 5 kts | 199° |
| 2026-05-07 16:19 | 50.04432 | 8.56271 | 367 ft | 2 kts | 167° |
| 2026-05-07 16:20 | 50.04420 | 8.56276 | 363 ft | 1 kts | 167° |
| 2026-05-07 16:20 | 50.04418 | 8.56277 | 363 ft | 0 kts | 167° |